Time;durP1;ratioP1;P1;durP2;ratioP2;P2;SDS_P1;SDS_P2;PMS_P1;PMS_P2;Temp;Humidity;BMP_temperature;BMP_pressure;BME280_temperature;BME280_humidity;BME280_pressure;Samples;Min_cycle;Max_cycle;Signal;HPM_P1;HPM_P2
2021/12/02 00:01:28;;;;;;;0.60;0.60;;;3.30;99.90;;;;;;5014668;28;20139;-81
2021/12/02 00:03:55;;;;;;;0.82;0.82;;;3.20;99.90;;;;;;5015056;28;20112;-81
2021/12/02 00:06:21;;;;;;;0.60;0.60;;;3.20;99.90;;;;;;5014857;28;20053;-80
2021/12/02 00:08:49;;;;;;;0.70;0.70;;;3.20;99.90;;;;;;5014955;28;20125;-80
2021/12/02 00:11:16;;;;;;;0.60;0.60;;;4.10;99.90;;;;;;5014799;28;20183;-80
2021/12/02 00:16:27;;;;;;;0.60;0.60;;;3.10;99.90;;;;;;5014724;28;20500;-80
2021/12/02 00:21:24;;;;;;;0.60;0.60;;;3.20;99.90;;;;;;5014777;28;20068;-80
2021/12/02 00:23:59;;;;;;;0.60;0.60;;;3.10;99.90;;;;;;5014790;28;20046;-81
2021/12/02 00:26:27;;;;;;;0.60;0.60;;;3.10;99.90;;;;;;5014507;28;20041;-79
2021/12/02 00:28:55;;;;;;;0.60;0.60;;;3.20;99.90;;;;;;4997252;28;20460;-79
2021/12/02 00:31:23;;;;;;;0.60;0.60;;;3.20;99.90;;;;;;5014800;28;20041;-79
2021/12/02 00:33:52;;;;;;;0.60;0.60;;;3.20;99.90;;;;;;5014762;28;20046;-80
2021/12/02 00:36:20;;;;;;;0.60;0.60;;;3.20;99.90;;;;;;5014442;28;20046;-81
2021/12/02 00:38:47;;;;;;;0.60;0.60;;;3.20;99.90;;;;;;5013933;28;20046;-81
2021/12/02 00:41:18;;;;;;;0.70;0.70;;;3.20;99.90;;;;;;5014553;28;20075;-81
2021/12/02 00:43:48;;;;;;;0.70;0.70;;;3.20;99.90;;;;;;5014252;28;20085;-79
2021/12/02 00:46:16;;;;;;;0.60;0.60;;;3.30;99.90;;;;;;5014221;28;20053;-81
2021/12/02 00:48:42;;;;;;;0.60;0.60;;;3.20;99.90;;;;;;5014187;28;20125;-81
2021/12/02 00:51:09;;;;;;;0.52;0.52;;;3.20;99.90;;;;;;4996841;28;20140;-82
2021/12/02 00:53:40;;;;;;;0.60;0.60;;;3.20;99.90;;;;;;5013999;28;20054;-80
2021/12/02 00:56:07;;;;;;;0.60;0.60;;;3.10;99.90;;;;;;5014364;28;20046;-80
2021/12/02 00:58:33;;;;;;;0.50;0.50;;;3.20;99.90;;;;;;5014056;28;20069;-81
2021/12/02 01:01:00;;;;;;;0.60;0.60;;;3.20;99.90;;;;;;5014264;28;20049;-79
2021/12/02 01:03:32;;;;;;;0.60;0.60;;;3.00;99.90;;;;;;4996670;28;20046;-82
2021/12/02 01:05:58;;;;;;;0.60;0.60;;;3.00;99.90;;;;;;5013932;28;20149;-81
2021/12/02 01:08:25;;;;;;;0.60;0.60;;;3.00;99.90;;;;;;5013893;28;20046;-82
2021/12/02 01:10:51;;;;;;;0.60;0.60;;;2.90;99.90;;;;;;5014204;28;20042;-82
2021/12/02 01:13:17;;;;;;;0.60;0.60;;;2.90;99.90;;;;;;5013906;28;20096;-81
2021/12/02 01:15:43;;;;;;;0.60;0.60;;;2.90;99.90;;;;;;5013934;28;20037;-79
2021/12/02 01:18:08;;;;;;;0.60;0.60;;;2.80;99.90;;;;;;5013892;28;20100;-81
2021/12/02 01:20:35;;;;;;;0.60;0.60;;;2.80;99.90;;;;;;5013488;28;20050;-81
2021/12/02 01:23:01;;;;;;;0.70;0.70;;;2.80;99.90;;;;;;5013907;28;20053;-79
2021/12/02 01:25:32;;;;;;;0.60;0.60;;;2.90;99.90;;;;;;5013473;28;20042;-81
2021/12/02 01:27:59;;;;;;;0.60;0.60;;;2.70;99.90;;;;;;5013821;28;20057;-80
2021/12/02 01:30:31;;;;;;;0.60;0.60;;;2.70;99.90;;;;;;5014001;28;20387;-79
2021/12/02 01:33:02;;;;;;;0.60;0.60;;;2.70;99.90;;;;;;5013815;28;20045;-81
2021/12/02 01:35:28;;;;;;;0.60;0.60;;;2.60;99.90;;;;;;5013729;28;20057;-81
2021/12/02 01:37:54;;;;;;;0.60;0.60;;;2.60;99.90;;;;;;5013755;28;20087;-79
2021/12/02 01:40:20;;;;;;;0.60;0.60;;;2.60;99.90;;;;;;5013427;28;20038;-80
2021/12/02 01:42:50;;;;;;;0.60;0.60;;;2.60;99.90;;;;;;5013770;28;20046;-81
2021/12/02 01:45:19;;;;;;;0.60;0.60;;;2.60;99.90;;;;;;5013640;28;20136;-82
2021/12/02 01:47:49;;;;;;;0.60;0.60;;;2.60;99.90;;;;;;5013536;28;20078;-80
2021/12/02 01:50:17;;;;;;;0.60;0.60;;;2.60;99.90;;;;;;5013859;28;20081;-81
2021/12/02 01:52:45;;;;;;;0.60;0.60;;;2.60;99.90;;;;;;4996402;28;20042;-80
2021/12/02 01:55:14;;;;;;;0.60;0.60;;;2.50;99.90;;;;;;5013286;28;20494;-79
2021/12/02 01:57:46;;;;;;;0.60;0.60;;;2.60;99.90;;;;;;5013339;28;20056;-81
2021/12/02 02:00:19;;;;;;;0.60;0.60;;;2.50;99.90;;;;;;4995987;28;20042;-82
2021/12/02 02:02:45;;;;;;;0.85;0.82;;;2.80;99.90;;;;;;5013550;28;20486;-81
2021/12/02 02:05:13;;;;;;;0.70;0.70;;;2.60;99.90;;;;;;5013411;28;20042;-80
2021/12/02 02:08:09;;;;;;;0.63;0.63;;;2.60;99.90;;;;;;4996070;28;20482;-81
2021/12/02 02:10:39;;;;;;;0.70;0.70;;;2.60;99.90;;;;;;5013240;28;20504;-81
2021/12/02 02:13:06;;;;;;;0.60;0.60;;;2.60;99.90;;;;;;5013392;28;20053;-79
2021/12/02 02:15:32;;;;;;;0.70;0.70;;;2.60;99.90;;;;;;5013462;28;20371;-82
2021/12/02 02:18:05;;;;;;;0.60;0.60;;;2.90;99.90;;;;;;4995953;28;20046;-79
2021/12/02 02:20:51;;;;;;;0.60;0.60;;;2.80;99.90;;;;;;5013318;28;20108;-81
2021/12/02 02:23:17;;;;;;;0.90;0.90;;;2.80;99.90;;;;;;5015523;28;20076;-81
2021/12/02 02:25:45;;;;;;;0.60;0.60;;;2.90;99.90;;;;;;4999484;28;20042;-80
2021/12/02 02:28:11;;;;;;;0.60;0.60;;;3.00;99.90;;;;;;5017022;28;20116;-79
2021/12/02 02:30:37;;;;;;;0.60;0.60;;;3.00;99.90;;;;;;5016636;28;20482;-81
2021/12/02 02:33:02;;;;;;;0.60;0.60;;;3.00;99.90;;;;;;5016733;28;20129;-81
2021/12/02 02:35:28;;;;;;;0.60;0.60;;;3.00;99.90;;;;;;4999023;28;20045;-80
2021/12/02 02:37:54;;;;;;;0.60;0.60;;;3.00;99.90;;;;;;5016545;28;20053;-81
2021/12/02 02:40:19;;;;;;;0.60;0.60;;;3.00;99.90;;;;;;5016929;28;20049;-81
2021/12/02 02:42:48;;;;;;;0.68;0.68;;;3.00;99.90;;;;;;5016369;28;20046;-82
2021/12/02 02:45:15;;;;;;;0.60;0.60;;;3.00;99.90;;;;;;5016485;28;20090;-81
2021/12/02 02:47:41;;;;;;;0.60;0.60;;;2.50;99.90;;;;;;5016499;28;20042;-81
2021/12/02 02:50:11;;;;;;;0.60;0.60;;;2.90;99.90;;;;;;4999006;28;20200;-81
2021/12/02 02:52:37;;;;;;;0.60;0.60;;;2.90;99.90;;;;;;5016505;28;20041;-81
2021/12/02 02:55:03;;;;;;;0.60;0.60;;;2.80;99.90;;;;;;5016576;28;20046;-81
2021/12/02 02:57:31;;;;;;;0.65;0.65;;;2.80;99.90;;;;;;5016380;28;20045;-80
2021/12/02 03:00:07;;;;;;;0.60;0.60;;;2.70;99.90;;;;;;5016067;28;20038;-79
2021/12/02 03:02:57;;;;;;;0.60;0.60;;;2.70;99.90;;;;;;5016148;28;20128;-82
2021/12/02 03:05:30;;;;;;;0.60;0.60;;;2.70;99.90;;;;;;5016054;28;20050;-82
2021/12/02 03:08:09;;;;;;;0.60;0.60;;;2.70;99.90;;;;;;5015770;28;20478;-81
2021/12/02 03:13:15;;;;;;;0.60;0.60;;;2.60;99.90;;;;;;4998664;28;20042;-81
2021/12/02 03:18:26;;;;;;;0.60;0.60;;;2.60;99.90;;;;;;5016034;28;20498;-80
2021/12/02 03:20:52;;;;;;;0.60;0.60;;;2.60;99.90;;;;;;5015875;28;20093;-80
2021/12/02 03:23:18;;;;;;;0.60;0.60;;;2.50;99.90;;;;;;5015761;28;20060;-82
2021/12/02 03:25:43;;;;;;;0.60;0.60;;;2.50;99.90;;;;;;5015715;28;20049;-81
2021/12/02 03:28:09;;;;;;;0.60;0.60;;;2.50;99.90;;;;;;4998070;28;20046;-82
2021/12/02 03:30:34;;;;;;;0.60;0.60;;;2.50;99.90;;;;;;5015585;28;20044;-81
2021/12/02 03:33:00;;;;;;;0.60;0.60;;;2.40;99.90;;;;;;5015334;28;20052;-81
2021/12/02 03:35:26;;;;;;;0.60;0.60;;;2.40;99.90;;;;;;5014531;28;20077;-80
2021/12/02 03:37:51;;;;;;;0.63;0.63;;;2.30;99.90;;;;;;5015449;28;20085;-80
2021/12/02 03:40:17;;;;;;;0.60;0.60;;;2.30;99.90;;;;;;5015101;28;20516;-80
2021/12/02 03:42:49;;;;;;;0.70;0.70;;;2.30;99.90;;;;;;5014267;28;20046;-79
2021/12/02 03:45:15;;;;;;;0.60;0.60;;;2.30;99.90;;;;;;5015467;28;20164;-82
2021/12/02 03:47:40;;;;;;;0.60;0.60;;;2.20;99.90;;;;;;5015180;28;20490;-79
2021/12/02 03:50:07;;;;;;;0.60;0.60;;;2.20;99.90;;;;;;5015230;28;20034;-81
2021/12/02 03:52:32;;;;;;;0.60;0.60;;;2.20;99.90;;;;;;5015020;28;20092;-80
2021/12/02 03:54:58;;;;;;;0.65;0.65;;;2.10;99.90;;;;;;5014880;28;20049;-81
2021/12/02 03:57:23;;;;;;;0.60;0.60;;;2.10;99.90;;;;;;5013518;28;20513;-81
2021/12/02 03:59:49;;;;;;;0.60;0.60;;;2.10;99.90;;;;;;5014963;28;20050;-81
2021/12/02 04:02:15;;;;;;;0.70;0.70;;;2.00;99.90;;;;;;5014718;28;20053;-80
2021/12/02 04:04:40;;;;;;;0.70;0.70;;;2.00;99.90;;;;;;5015278;28;20037;-82
2021/12/02 04:07:06;;;;;;;0.60;0.60;;;2.00;99.90;;;;;;5015058;28;20397;-80
2021/12/02 04:09:39;;;;;;;0.60;0.60;;;1.90;99.90;;;;;;4981579;28;20491;-82
2021/12/02 04:12:12;;;;;;;0.60;0.60;;;1.90;99.90;;;;;;4997495;28;20060;-81
2021/12/02 04:14:42;;;;;;;0.60;0.60;;;1.90;99.90;;;;;;5015237;28;20042;-79
2021/12/02 04:17:09;;;;;;;0.60;0.60;;;1.80;99.90;;;;;;5015155;28;20052;-80
2021/12/02 04:19:37;;;;;;;0.70;0.70;;;1.80;99.90;;;;;;5014581;28;20056;-80
2021/12/02 04:22:04;;;;;;;0.80;0.80;;;1.90;99.90;;;;;;5014444;28;20061;-80
2021/12/02 04:24:29;;;;;;;0.60;0.60;;;1.80;99.90;;;;;;4997390;28;20065;-81
2021/12/02 04:26:55;;;;;;;0.60;0.60;;;1.80;99.90;;;;;;5014585;28;20062;-79
2021/12/02 04:29:24;;;;;;;0.60;0.60;;;1.80;99.90;;;;;;5014595;28;20471;-80
2021/12/02 04:31:49;;;;;;;0.60;0.60;;;1.80;99.90;;;;;;4997147;28;20124;-80
2021/12/02 04:34:15;;;;;;;0.60;0.60;;;1.80;99.90;;;;;;5014417;28;20485;-81
2021/12/02 04:36:42;;;;;;;0.70;0.70;;;1.80;99.90;;;;;;5014489;28;20042;-81
2021/12/02 04:39:09;;;;;;;0.70;0.70;;;1.80;99.90;;;;;;5014197;28;20108;-79
2021/12/02 04:41:34;;;;;;;0.60;0.60;;;1.80;99.90;;;;;;5014285;28;20093;-81
2021/12/02 04:44:00;;;;;;;0.70;0.70;;;1.90;99.90;;;;;;5014959;28;20088;-79
2021/12/02 04:46:26;;;;;;;0.70;0.70;;;1.80;99.90;;;;;;5013860;28;20046;-80
2021/12/02 04:48:52;;;;;;;0.70;0.70;;;1.70;99.90;;;;;;5014354;28;20084;-80
2021/12/02 04:51:17;;;;;;;0.70;0.70;;;1.70;99.90;;;;;;5014055;28;20521;-80
2021/12/02 04:53:43;;;;;;;0.68;0.68;;;1.80;99.90;;;;;;5014204;28;20042;-81
2021/12/02 04:56:08;;;;;;;0.60;0.60;;;1.70;99.90;;;;;;4996570;28;20149;-80
2021/12/02 04:58:34;;;;;;;0.60;0.60;;;1.80;99.90;;;;;;5014152;28;20056;-80
2021/12/02 05:00:59;;;;;;;0.60;0.60;;;1.70;99.90;;;;;;5014040;28;20073;-80
2021/12/02 05:03:25;;;;;;;0.60;0.60;;;1.70;99.90;;;;;;5014086;28;20045;-81
2021/12/02 05:05:51;;;;;;;0.60;0.60;;;1.70;99.90;;;;;;5013781;28;20052;-80
2021/12/02 05:08:16;;;;;;;0.60;0.60;;;1.80;99.90;;;;;;5013891;28;20045;-80
2021/12/02 05:10:42;;;;;;;0.63;0.63;;;1.80;99.90;;;;;;5013978;28;20151;-80
2021/12/02 05:13:08;;;;;;;0.60;0.60;;;1.80;99.90;;;;;;5012859;28;20057;-81
2021/12/02 05:15:33;;;;;;;0.70;0.70;;;1.80;99.90;;;;;;5014005;28;20077;-80
2021/12/02 05:17:59;;;;;;;0.60;0.60;;;1.80;99.90;;;;;;4996909;28;20081;-81
2021/12/02 05:20:25;;;;;;;0.70;0.70;;;1.80;99.90;;;;;;5013301;28;20088;-79
2021/12/02 05:22:50;;;;;;;0.60;0.60;;;1.80;99.90;;;;;;4996730;28;20053;-80
2021/12/02 05:25:16;;;;;;;0.70;0.70;;;1.70;99.90;;;;;;4996495;28;20046;-79
2021/12/02 05:27:42;;;;;;;0.60;0.60;;;1.90;99.90;;;;;;5013832;28;20471;-81
2021/12/02 05:30:09;;;;;;;0.60;0.60;;;1.70;99.90;;;;;;5013781;28;20042;-80
2021/12/02 05:32:35;;;;;;;0.77;0.77;;;1.60;99.90;;;;;;5014217;28;20046;-81
2021/12/02 05:35:01;;;;;;;0.70;0.70;;;1.40;99.90;;;;;;5013826;28;20132;-81
2021/12/02 05:37:27;;;;;;;0.60;0.60;;;1.60;99.90;;;;;;4996196;28;20049;-82
2021/12/02 05:39:53;;;;;;;0.60;0.60;;;1.60;99.90;;;;;;4996089;28;20057;-81
2021/12/02 05:42:19;;;;;;;0.70;0.70;;;1.60;99.90;;;;;;5013640;28;20136;-81
2021/12/02 05:44:45;;;;;;;0.70;0.70;;;1.50;99.90;;;;;;5013690;28;20058;-81
2021/12/02 05:47:14;;;;;;;0.70;0.70;;;1.50;99.90;;;;;;5013864;28;20046;-82
2021/12/02 05:49:40;;;;;;;0.60;0.60;;;1.50;99.90;;;;;;5013273;28;20125;-79
2021/12/02 05:52:06;;;;;;;0.70;0.70;;;1.50;99.90;;;;;;5013737;28;20041;-82
2021/12/02 05:54:32;;;;;;;0.70;0.70;;;1.50;99.90;;;;;;5013423;28;20045;-81
2021/12/02 05:56:58;;;;;;;0.70;0.70;;;1.50;99.90;;;;;;5013864;28;20046;-82
2021/12/02 05:59:24;;;;;;;0.60;0.60;;;1.50;99.90;;;;;;5017607;28;20390;-81
2021/12/02 06:01:51;;;;;;;0.70;0.70;;;1.60;99.90;;;;;;5017271;28;20112;-80
2021/12/02 06:04:17;;;;;;;0.63;0.63;;;1.60;99.90;;;;;;5017207;28;20049;-81
2021/12/02 06:06:42;;;;;;;0.60;0.60;;;1.60;99.90;;;;;;5017234;28;20382;-82
2021/12/02 06:09:08;;;;;;;0.70;0.70;;;1.60;99.90;;;;;;5017756;28;20135;-81
2021/12/02 06:11:34;;;;;;;0.60;0.60;;;1.60;99.90;;;;;;5018287;28;20046;-81
2021/12/02 06:13:59;;;;;;;0.60;0.60;;;1.60;99.90;;;;;;5016942;28;20050;-77
2021/12/02 06:16:25;;;;;;;0.60;0.60;;;1.60;99.90;;;;;;5017170;28;20038;-81
2021/12/02 06:18:51;;;;;;;0.68;0.68;;;1.50;99.90;;;;;;5016898;28;20486;-82
2021/12/02 06:21:16;;;;;;;0.60;0.60;;;1.50;99.90;;;;;;5016779;28;20093;-82
2021/12/02 06:23:43;;;;;;;0.60;0.60;;;1.50;99.90;;;;;;5015605;28;20049;-84
2021/12/02 06:26:09;;;;;;;0.70;0.70;;;1.40;99.90;;;;;;4999714;28;20049;-80
2021/12/02 06:28:36;;;;;;;0.70;0.70;;;1.40;99.90;;;;;;5016459;28;20133;-81
2021/12/02 06:31:02;;;;;;;0.70;0.70;;;1.40;99.90;;;;;;5016959;28;20433;-82
2021/12/02 06:33:31;;;;;;;0.70;0.70;;;1.40;99.90;;;;;;5016723;28;20045;-81
2021/12/02 06:35:57;;;;;;;0.70;0.70;;;1.40;99.90;;;;;;5016196;28;20049;-82
2021/12/02 06:38:23;;;;;;;0.65;0.65;;;1.40;99.90;;;;;;5016486;28;20073;-80
2021/12/02 06:40:49;;;;;;;0.70;0.70;;;1.40;99.90;;;;;;5016487;28;20034;-81
2021/12/02 06:43:15;;;;;;;0.60;0.60;;;1.50;99.90;;;;;;5016448;28;20505;-81
2021/12/02 06:45:42;;;;;;;0.60;0.60;;;1.50;99.90;;;;;;4999123;28;20046;-82
2021/12/02 06:48:07;;;;;;;0.60;0.60;;;1.50;99.90;;;;;;4999056;28;20445;-81
2021/12/02 06:50:35;;;;;;;0.70;0.70;;;1.60;99.90;;;;;;5016270;28;20046;-79
2021/12/02 06:53:00;;;;;;;0.60;0.60;;;1.60;99.90;;;;;;5016232;28;20042;-82
2021/12/02 06:55:26;;;;;;;0.70;0.70;;;1.60;99.90;;;;;;5016312;28;20441;-82
2021/12/02 06:57:52;;;;;;;0.65;0.65;;;1.80;99.90;;;;;;5016201;28;20069;-81
2021/12/02 07:00:20;;;;;;;0.70;0.70;;;1.70;99.90;;;;;;5016395;28;20061;-82
2021/12/02 07:02:47;;;;;;;0.70;0.70;;;1.70;99.90;;;;;;5016078;28;20127;-81
2021/12/02 07:05:15;;;;;;;0.70;0.70;;;1.70;99.90;;;;;;5016062;28;20119;-81
2021/12/02 07:07:40;;;;;;;0.60;0.60;;;1.10;99.90;;;;;;5015796;28;20050;-82
2021/12/02 07:10:13;;;;;;;0.60;0.60;;;1.80;99.90;;;;;;5015862;28;20045;-80
2021/12/02 07:12:42;;;;;;;0.60;0.60;;;1.80;99.90;;;;;;4998660;28;20487;-81
2021/12/02 07:15:19;;;;;;;0.65;0.65;;;1.80;99.90;;;;;;5015959;28;20068;-81
2021/12/02 07:17:49;;;;;;;0.68;0.68;;;1.80;99.90;;;;;;5016017;28;20057;-82
2021/12/02 07:20:15;;;;;;;0.60;0.60;;;1.80;99.90;;;;;;5015406;28;20042;-81
2021/12/02 07:22:41;;;;;;;0.70;0.70;;;1.80;99.90;;;;;;5016375;28;20057;-83
2021/12/02 07:25:07;;;;;;;0.70;0.70;;;1.80;99.90;;;;;;5015738;28;20092;-81
2021/12/02 07:27:33;;;;;;;0.70;0.70;;;1.80;99.90;;;;;;5014377;28;20077;-78
2021/12/02 07:29:59;;;;;;;0.70;0.70;;;1.80;99.90;;;;;;5015697;28;20080;-78
2021/12/02 07:32:36;;;;;;;0.70;0.70;;;1.90;99.90;;;;;;5015876;28;20049;-80
2021/12/02 07:35:07;;;;;;;0.70;0.70;;;1.90;99.90;;;;;;5015210;28;20096;-79
2021/12/02 07:37:34;;;;;;;0.70;0.70;;;1.90;99.90;;;;;;4998794;28;20042;-79
2021/12/02 07:40:00;;;;;;;0.63;0.63;;;1.90;99.90;;;;;;5015172;28;20474;-80
2021/12/02 07:42:26;;;;;;;0.68;0.68;;;1.90;99.90;;;;;;5015343;28;20144;-78
2021/12/02 07:44:52;;;;;;;0.60;0.60;;;1.90;99.90;;;;;;5015389;28;20077;-80
2021/12/02 07:47:17;;;;;;;2.00;1.60;;;1.90;99.90;;;;;;4998010;28;20046;-78
2021/12/02 07:49:43;;;;;;;0.70;0.70;;;1.80;99.90;;;;;;5015207;28;20153;-81
2021/12/02 07:52:11;;;;;;;0.70;0.70;;;1.90;99.90;;;;;;5014957;28;20514;-82
2021/12/02 07:54:39;;;;;;;0.70;0.70;;;1.90;99.90;;;;;;5015209;28;20095;-82
2021/12/02 07:57:05;;;;;;;0.63;0.63;;;2.50;99.90;;;;;;5014831;28;20528;-82
2021/12/02 07:59:31;;;;;;;0.70;0.70;;;1.90;99.90;;;;;;5015399;28;20042;-80
2021/12/02 08:02:00;;;;;;;0.70;0.70;;;1.90;99.90;;;;;;5014736;28;20136;-82
2021/12/02 08:04:27;;;;;;;0.68;0.68;;;1.90;99.90;;;;;;5014980;28;20045;-82
2021/12/02 08:06:53;;;;;;;1.02;1.02;;;1.90;99.90;;;;;;4981700;28;20050;-83
2021/12/02 08:09:19;;;;;;;0.60;0.60;;;1.90;99.90;;;;;;4997939;28;20129;-81
2021/12/02 08:11:44;;;;;;;0.70;0.70;;;1.90;99.90;;;;;;5015248;28;20320;-80
2021/12/02 08:14:15;;;;;;;0.60;0.60;;;2.00;99.90;;;;;;5015247;28;20094;-81
2021/12/02 08:16:41;;;;;;;0.65;0.65;;;2.00;99.90;;;;;;5017218;28;20460;-82
2021/12/02 08:19:06;;;;;;;0.60;0.60;;;1.70;99.90;;;;;;5034730;28;20120;-78
2021/12/02 08:21:32;;;;;;;0.60;0.60;;;2.00;99.90;;;;;;5043956;28;20059;-81
2021/12/02 08:23:58;;;;;;;0.68;0.68;;;2.00;99.90;;;;;;5023184;28;20052;-81
2021/12/02 08:26:24;;;;;;;0.70;0.70;;;2.00;99.90;;;;;;5023500;28;20049;-80
2021/12/02 08:28:50;;;;;;;0.70;0.70;;;2.10;99.90;;;;;;5035525;28;20099;-82
2021/12/02 08:31:16;;;;;;;0.70;0.70;;;2.20;99.90;;;;;;5034385;28;20053;-79
2021/12/02 08:33:42;;;;;;;0.70;0.70;;;2.20;99.90;;;;;;5034646;28;20077;-80
2021/12/02 08:36:08;;;;;;;0.70;0.70;;;2.20;99.90;;;;;;5034408;28;20049;-78
2021/12/02 08:38:35;;;;;;;0.70;0.70;;;2.30;99.90;;;;;;5039059;28;20154;-81
2021/12/02 08:41:01;;;;;;;0.60;0.60;;;2.30;99.90;;;;;;5035627;28;20092;-76
2021/12/02 08:43:27;;;;;;;0.70;0.70;;;2.40;99.90;;;;;;5033944;28;20049;-78
2021/12/02 08:45:53;;;;;;;0.60;0.60;;;2.40;99.90;;;;;;5034052;28;20046;-81
2021/12/02 08:48:19;;;;;;;0.60;0.60;;;2.40;99.90;;;;;;5034505;28;20128;-78
2021/12/02 08:50:47;;;;;;;0.60;0.60;;;2.50;99.90;;;;;;5016536;28;20133;-81
2021/12/02 08:53:13;;;;;;;0.60;0.60;;;2.50;99.90;;;;;;5033939;28;20059;-78
2021/12/02 08:55:39;;;;;;;0.63;0.63;;;2.50;99.90;;;;;;5033938;28;20425;-79
2021/12/02 08:58:07;;;;;;;0.70;0.70;;;2.90;99.90;;;;;;5034038;28;20048;-79
2021/12/02 09:00:35;;;;;;;0.60;0.60;;;2.60;99.90;;;;;;5016065;28;20081;-78
2021/12/02 09:03:02;;;;;;;0.60;0.60;;;2.70;99.90;;;;;;5034326;28;20124;-80
2021/12/02 09:05:28;;;;;;;0.60;0.60;;;2.70;99.90;;;;;;5016461;28;20037;-81
2021/12/02 09:07:54;;;;;;;0.70;0.70;;;2.70;99.90;;;;;;5033987;28;20095;-81
2021/12/02 09:10:21;;;;;;;0.60;0.60;;;2.70;99.90;;;;;;5034006;28;20099;-81
2021/12/02 09:12:48;;;;;;;0.70;0.70;;;2.70;99.90;;;;;;5033816;28;20408;-80
2021/12/02 09:15:15;;;;;;;0.60;0.60;;;2.80;99.90;;;;;;4999937;28;20084;-78
2021/12/02 09:17:40;;;;;;;0.60;0.60;;;2.80;99.90;;;;;;5032582;28;20105;-81
2021/12/02 09:20:08;;;;;;;0.70;0.70;;;2.70;99.90;;;;;;5016044;28;20053;-83
2021/12/02 09:22:34;;;;;;;0.60;0.60;;;2.70;99.90;;;;;;4993275;28;20511;-83
2021/12/02 09:25:00;;;;;;;0.60;0.60;;;2.70;99.90;;;;;;4994056;28;20057;-83
2021/12/02 09:27:25;;;;;;;0.60;0.60;;;2.40;99.90;;;;;;4993384;28;20042;-84
2021/12/02 09:29:51;;;;;;;0.60;0.60;;;2.70;99.90;;;;;;4994270;28;20177;-81
2021/12/02 09:32:17;;;;;;;0.60;0.60;;;2.70;99.90;;;;;;4995972;28;20039;-80
2021/12/02 09:34:44;;;;;;;0.70;0.70;;;2.70;99.90;;;;;;4998225;28;20145;-78
2021/12/02 09:37:09;;;;;;;0.60;0.60;;;2.60;99.90;;;;;;4998223;28;20526;-79
2021/12/02 09:39:35;;;;;;;0.70;0.70;;;2.60;99.90;;;;;;4998306;28;20134;-79
2021/12/02 09:42:02;;;;;;;0.60;0.60;;;2.60;99.90;;;;;;4997069;28;20042;-78
2021/12/02 09:44:29;;;;;;;0.60;0.60;;;2.70;99.90;;;;;;4997934;28;20054;-79
2021/12/02 09:46:57;;;;;;;0.60;0.60;;;2.70;99.90;;;;;;4997731;28;20556;-78
2021/12/02 09:49:24;;;;;;;0.60;0.60;;;2.70;99.90;;;;;;4998227;28;20053;-77
2021/12/02 09:54:29;;;;;;;0.60;0.60;;;2.80;99.90;;;;;;4997301;28;20129;-77
2021/12/02 09:56:57;;;;;;;0.60;0.60;;;2.80;99.90;;;;;;4998183;28;20053;-80
2021/12/02 09:59:35;;;;;;;0.60;0.60;;;5.30;99.90;;;;;;4980632;28;20054;-80
2021/12/02 10:02:04;;;;;;;0.60;0.60;;;3.00;99.90;;;;;;4997455;28;20057;-80
2021/12/02 10:04:32;;;;;;;0.80;0.80;;;3.10;99.90;;;;;;4997599;28;20137;-79
2021/12/02 10:07:15;;;;;;;0.60;0.60;;;3.20;99.90;;;;;;4996421;28;20046;-81
2021/12/02 10:09:54;;;;;;;0.60;0.60;;;3.30;99.90;;;;;;4997559;28;20038;-77
2021/12/02 10:12:22;;;;;;;0.60;0.60;;;4.00;99.90;;;;;;4996426;28;20046;-80
2021/12/02 10:14:53;;;;;;;0.60;0.60;;;3.40;99.90;;;;;;4996371;28;20606;-81
2021/12/02 10:17:37;;;;;;;0.60;0.60;;;3.40;99.90;;;;;;4997405;28;20105;-79
2021/12/02 10:20:13;;;;;;;0.60;0.60;;;3.40;99.90;;;;;;4997216;28;20038;-81
2021/12/02 10:22:41;;;;;;;0.60;0.60;;;3.50;99.90;;;;;;4997918;28;20094;-81
2021/12/02 10:25:07;;;;;;;0.60;0.60;;;3.50;99.90;;;;;;4997277;28;20059;-80
2021/12/02 10:27:33;;;;;;;0.60;0.60;;;3.60;99.90;;;;;;4997507;28;20150;-79
2021/12/02 10:29:59;;;;;;;0.52;0.52;;;3.70;99.90;;;;;;4996051;28;20139;-81
2021/12/02 10:32:32;;;;;;;0.60;0.60;;;3.80;99.90;;;;;;4996300;28;20470;-78
2021/12/02 10:35:06;;;;;;;0.60;0.60;;;4.10;99.90;;;;;;4997109;28;20055;-78
2021/12/02 10:37:35;;;;;;;0.50;0.50;;;3.80;99.90;;;;;;4997042;28;20061;-81
2021/12/02 10:40:12;;;;;;;0.60;0.60;;;3.80;99.90;;;;;;4996869;28;20038;-81
2021/12/02 10:42:43;;;;;;;0.60;0.60;;;3.80;99.90;;;;;;4996560;28;20061;-78
2021/12/02 10:45:27;;;;;;;0.60;0.60;;;3.80;99.90;;;;;;4995725;28;20057;-79
2021/12/02 10:47:55;;;;;;;0.60;0.60;;;3.90;99.90;;;;;;4996491;28;20097;-79
2021/12/02 10:50:23;;;;;;;0.50;0.50;;;3.90;99.90;;;;;;4995560;28;20553;-81
2021/12/02 10:52:51;;;;;;;0.60;0.60;;;4.10;99.90;;;;;;4995114;28;20042;-79
2021/12/02 10:55:21;;;;;;;0.60;0.60;;;4.20;99.90;;;;;;4996413;28;20061;-81
2021/12/02 10:57:54;;;;;;;0.60;0.60;;;4.30;99.90;;;;;;4996206;28;20051;-80
2021/12/02 11:00:32;;;;;;;0.60;0.60;;;4.50;99.90;;;;;;4996575;28;20050;-80
2021/12/02 11:03:07;;;;;;;0.60;0.60;;;4.50;99.90;;;;;;5010780;28;20050;-81
2021/12/02 11:05:33;;;;;;;0.60;0.60;;;4.50;99.90;;;;;;4996222;28;20057;-80
2021/12/02 11:08:04;;;;;;;0.60;0.60;;;4.50;99.90;;;;;;4996067;28;20433;-80
2021/12/02 11:10:39;;;;;;;0.60;0.60;;;4.50;99.90;;;;;;4996202;28;20553;-81
2021/12/02 11:13:11;;;;;;;0.55;0.55;;;4.40;99.90;;;;;;4994846;28;20061;-82
2021/12/02 11:15:39;;;;;;;0.60;0.60;;;4.30;99.90;;;;;;4996134;28;20050;-84
2021/12/02 11:18:07;;;;;;;0.60;0.60;;;4.20;99.90;;;;;;4995470;28;20061;-82
2021/12/02 11:20:36;;;;;;;0.60;0.60;;;5.00;99.90;;;;;;4984063;28;20061;-80
2021/12/02 11:23:08;;;;;;;0.60;0.60;;;4.10;99.90;;;;;;5017340;28;20100;-79
2021/12/02 11:25:39;;;;;;;0.50;0.50;;;3.90;99.90;;;;;;5016751;28;20049;-80
2021/12/02 11:28:07;;;;;;;0.60;0.60;;;3.80;99.90;;;;;;5015653;28;20050;-82
2021/12/02 11:30:35;;;;;;;0.85;0.82;;;3.70;99.90;;;;;;5016929;28;20088;-79
2021/12/02 11:33:08;;;;;;;0.60;0.60;;;3.60;99.90;;;;;;5015528;28;20061;-80
2021/12/02 11:35:36;;;;;;;0.60;0.60;;;3.60;99.90;;;;;;4998251;28;20548;-83
2021/12/02 11:38:19;;;;;;;0.60;0.60;;;3.50;99.90;;;;;;5015329;28;20129;-80
2021/12/02 11:40:46;;;;;;;0.60;0.60;;;3.40;99.90;;;;;;5015257;28;20128;-80
2021/12/02 11:43:13;;;;;;;;;;;3.40;99.90;;;;;;5014945;28;20042;-80
2021/12/02 11:45:44;;;;;;;0.60;0.60;;;3.30;99.90;;;;;;5030192;28;20453;-80
2021/12/02 11:48:11;;;;;;;0.60;0.60;;;3.30;99.90;;;;;;5015172;28;20049;-83
2021/12/02 11:50:37;;;;;;;0.60;0.60;;;3.30;99.90;;;;;;5015098;28;20042;-79
2021/12/02 11:53:03;;;;;;;0.50;0.50;;;3.30;99.90;;;;;;5031414;28;20132;-82
2021/12/02 11:55:39;;;;;;;0.50;0.50;;;3.30;99.90;;;;;;5014153;28;20533;-80
2021/12/02 11:58:04;;;;;;;0.60;0.60;;;3.30;99.90;;;;;;5015193;28;20057;-81
2021/12/02 12:00:31;;;;;;;0.60;0.60;;;3.30;99.90;;;;;;4997432;28;20053;-79
2021/12/02 12:03:06;;;;;;;0.60;0.60;;;3.30;99.90;;;;;;5015017;28;20497;-82
2021/12/02 12:05:51;;;;;;;0.60;0.60;;;3.30;99.90;;;;;;5030614;28;20108;-80
2021/12/02 12:08:35;;;;;;;0.60;0.60;;;3.20;99.90;;;;;;5014171;28;20096;-80
2021/12/02 12:11:23;;;;;;;0.60;0.60;;;3.20;99.90;;;;;;5014473;28;20080;-81
2021/12/02 12:13:56;;;;;;;0.60;0.60;;;3.20;99.90;;;;;;5014662;28;20088;-80
2021/12/02 12:16:42;;;;;;;0.60;0.60;;;3.10;99.90;;;;;;5111467;27;20418;-78
2021/12/02 12:19:30;;;;;;;0.60;0.60;;;3.10;99.90;;;;;;5111290;28;20079;-79
2021/12/02 12:22:02;;;;;;;0.63;0.63;;;2.90;99.90;;;;;;5111507;28;20043;-78
2021/12/02 12:24:47;;;;;;;0.60;0.60;;;3.40;99.90;;;;;;5111402;28;20057;-79
2021/12/02 12:27:17;;;;;;;0.60;0.60;;;3.00;99.90;;;;;;5093713;28;20078;-79
2021/12/02 12:29:45;;;;;;;0.60;0.60;;;3.00;99.90;;;;;;5111209;28;20051;-79
2021/12/02 12:32:33;;;;;;;0.60;0.60;;;3.20;99.90;;;;;;5111278;28;20051;-78
2021/12/02 12:35:14;;;;;;;0.60;0.60;;;3.50;99.90;;;;;;5111332;28;20089;-79
2021/12/02 12:40:19;;;;;;;0.68;0.68;;;3.80;99.90;;;;;;5110614;28;20491;-80
2021/12/02 12:43:02;;;;;;;0.60;0.60;;;2.90;99.90;;;;;;5110291;28;20050;-79
2021/12/02 12:45:37;;;;;;;0.70;0.70;;;3.00;99.90;;;;;;5111016;28;20044;-80
2021/12/02 12:48:05;;;;;;;0.60;0.60;;;3.00;99.90;;;;;;5111155;28;20051;-78
2021/12/02 12:50:35;;;;;;;0.60;0.60;;;2.90;99.90;;;;;;5110713;28;20052;-80
2021/12/02 12:53:07;;;;;;;0.60;0.60;;;2.90;99.90;;;;;;5110636;28;20044;-80
2021/12/02 12:55:41;;;;;;;0.60;0.60;;;2.90;99.90;;;;;;5110789;28;20383;-78
2021/12/02 12:58:15;;;;;;;0.60;0.60;;;3.00;99.90;;;;;;5110887;28;20101;-80
2021/12/02 13:00:45;;;;;;;0.70;0.70;;;3.00;99.90;;;;;;5109386;28;20089;-82
2021/12/02 13:03:19;;;;;;;0.60;0.60;;;2.90;99.90;;;;;;5110587;28;20166;-81
2021/12/02 13:06:20;;;;;;;0.60;0.60;;;2.90;99.90;;;;;;5109600;28;20059;-82
2021/12/02 13:08:48;;;;;;;0.60;0.60;;;2.60;99.90;;;;;;5092235;28;20048;-82
2021/12/02 13:11:20;;;;;;;0.60;0.60;;;2.80;99.90;;;;;;5110248;28;20093;-81
2021/12/02 13:13:47;;;;;;;0.60;0.60;;;2.80;99.90;;;;;;5108941;28;20043;-79
2021/12/02 13:16:14;;;;;;;;;;;2.70;99.90;;;;;;5110872;28;20061;-81
2021/12/02 13:19:01;;;;;;;0.70;0.70;;;2.70;99.90;;;;;;5110217;28;19919;-79
2021/12/02 13:21:28;;;;;;;0.60;0.60;;;2.70;99.90;;;;;;5109842;28;20142;-79